Time;durP1;ratioP1;P1;durP2;ratioP2;P2;SDS_P1;SDS_P2;PMS_P1;PMS_P2;Temp;Humidity;BMP_temperature;BMP_pressure;BME280_temperature;BME280_humidity;BME280_pressure;Samples;Min_cycle;Max_cycle;Signal;HPM_P1;HPM_P2
2022/05/07 00:01:59;;;;;;;23.13;16.95;;;13.80;92.10;;;;;;5011205;28;20041;-41
2022/05/07 00:04:25;;;;;;;17.08;14.80;;;13.80;92.20;;;;;;5011509;28;20413;-41
2022/05/07 00:06:52;;;;;;;18.25;13.23;;;13.80;92.00;;;;;;5011893;28;20050;-42
2022/05/07 00:09:20;;;;;;;20.23;16.38;;;13.80;91.80;;;;;;5012632;28;20050;-41
2022/05/07 00:11:47;;;;;;;17.73;13.27;;;13.80;92.00;;;;;;5011030;28;20060;-42
2022/05/07 00:14:14;;;;;;;19.70;14.73;;;13.80;92.00;;;;;;5012985;28;20050;-41
2022/05/07 00:19:25;;;;;;;18.95;15.27;;;13.80;92.20;;;;;;5012888;28;20494;-41
2022/05/07 00:21:51;;;;;;;19.63;16.92;;;13.70;92.30;;;;;;5009704;28;20188;-41
2022/05/07 00:24:19;;;;;;;20.80;16.23;;;13.80;92.70;;;;;;5011262;28;20068;-41
2022/05/07 00:26:46;;;;;;;19.50;15.65;;;13.70;93.00;;;;;;5009933;28;20064;-42
2022/05/07 00:29:13;;;;;;;22.38;16.77;;;13.70;92.90;;;;;;5005471;28;20056;-42
2022/05/07 00:31:39;;;;;;;22.05;17.52;;;13.70;93.10;;;;;;5012149;28;20050;-42
2022/05/07 00:34:06;;;;;;;21.13;17.10;;;13.70;93.10;;;;;;5010765;28;20052;-42
2022/05/07 00:36:33;;;;;;;22.73;17.95;;;13.70;93.10;;;;;;5010079;28;20057;-42
2022/05/07 00:39:00;;;;;;;20.33;14.68;;;13.70;93.20;;;;;;5010311;28;20050;-42
2022/05/07 00:41:28;;;;;;;23.73;18.05;;;13.70;93.00;;;;;;5010342;28;20064;-42
2022/05/07 00:43:55;;;;;;;27.13;21.08;;;13.70;93.30;;;;;;5008236;28;20045;-42
2022/05/07 00:46:22;;;;;;;24.77;18.70;;;13.70;93.70;;;;;;5006607;28;20046;-41
2022/05/07 00:48:48;;;;;;;26.50;19.98;;;13.60;94.00;;;;;;5007134;28;20060;-41
2022/05/07 00:53:59;;;;;;;29.50;21.67;;;13.60;94.20;;;;;;5008267;28;20042;-42
2022/05/07 00:56:27;;;;;;;19.70;15.20;;;13.60;94.50;;;;;;5013352;28;20056;-42
2022/05/07 00:58:54;;;;;;;26.52;19.50;;;13.60;94.50;;;;;;5012102;28;20058;-42
2022/05/07 01:01:20;;;;;;;27.60;18.63;;;13.70;94.50;;;;;;5010156;28;20124;-42
2022/05/07 01:03:47;;;;;;;24.60;18.75;;;13.60;94.30;;;;;;5008761;28;20092;-42
2022/05/07 01:06:15;;;;;;;24.45;18.15;;;13.60;94.40;;;;;;5010915;28;20049;-42
2022/05/07 01:08:41;;;;;;;24.58;18.30;;;13.70;94.20;;;;;;5012328;28;20049;-42
2022/05/07 01:11:08;;;;;;;21.20;18.05;;;13.70;94.20;;;;;;5003084;28;20054;-42
2022/05/07 01:13:36;;;;;;;22.67;18.85;;;13.70;94.50;;;;;;5010297;28;20041;-42
2022/05/07 01:16:04;;;;;;;19.30;14.90;;;13.70;94.60;;;;;;5008107;28;20076;-42
2022/05/07 01:18:30;;;;;;;23.73;19.83;;;13.70;94.20;;;;;;5009768;28;20506;-43
2022/05/07 01:20:58;;;;;;;25.23;19.92;;;13.70;94.30;;;;;;5010602;28;20060;-42
2022/05/07 01:23:27;;;;;;;22.15;17.15;;;13.70;94.40;;;;;;5009119;28;20057;-43
2022/05/07 01:25:57;;;;;;;21.30;16.67;;;13.70;94.30;;;;;;5008562;28;20061;-42
2022/05/07 01:28:24;;;;;;;20.55;16.80;;;13.70;94.10;;;;;;5011361;28;20054;-42
2022/05/07 01:30:51;;;;;;;24.50;18.38;;;13.70;94.10;;;;;;5004704;28;20053;-42
2022/05/07 01:33:17;;;;;;;27.63;21.40;;;13.70;94.30;;;;;;5009348;28;20060;-42
2022/05/07 01:35:44;;;;;;;22.70;19.00;;;13.70;94.60;;;;;;5010405;28;20379;-42
2022/05/07 01:38:11;;;;;;;26.58;19.17;;;13.70;94.60;;;;;;5011002;28;20133;-42
2022/05/07 01:40:39;;;;;;;25.95;18.95;;;13.70;94.50;;;;;;5002894;28;20046;-41
2022/05/07 01:43:06;;;;;;;27.77;21.50;;;13.80;94.60;;;;;;5003143;28;20060;-42
2022/05/07 01:45:32;;;;;;;26.38;22.15;;;13.70;94.90;;;;;;5008091;28;20652;-42
2022/05/07 01:48:10;;;;;;;24.48;20.10;;;13.70;95.20;;;;;;5004889;28;20054;-42
2022/05/07 01:50:37;;;;;;;29.92;20.02;;;13.70;95.20;;;;;;5009579;28;20406;-43
2022/05/07 01:53:05;;;;;;;22.33;18.48;;;13.70;95.00;;;;;;5009445;28;20057;-42
2022/05/07 01:55:32;;;;;;;25.77;19.48;;;13.70;94.80;;;;;;5005154;28;20054;-41
2022/05/07 01:58:00;;;;;;;24.48;20.70;;;13.80;94.90;;;;;;5011154;28;20054;-42
2022/05/07 02:00:26;;;;;;;23.23;19.85;;;13.70;95.00;;;;;;5008596;28;20060;-42
2022/05/07 02:02:53;;;;;;;27.30;22.00;;;13.80;95.10;;;;;;5010105;28;20094;-42
2022/05/07 02:05:20;;;;;;;23.45;19.55;;;13.80;95.20;;;;;;5006782;28;20504;-42
2022/05/07 02:07:46;;;;;;;27.33;22.67;;;13.80;95.20;;;;;;5024443;28;20066;-42
2022/05/07 02:10:13;;;;;;;24.90;19.30;;;13.80;95.60;;;;;;5011318;28;20056;-42
2022/05/07 02:12:40;;;;;;;24.25;21.08;;;13.70;95.40;;;;;;5009603;28;20397;-42
2022/05/07 02:15:09;;;;;;;28.58;21.98;;;13.80;95.60;;;;;;5009107;28;20046;-42
2022/05/07 02:17:36;;;;;;;29.38;24.00;;;13.80;95.90;;;;;;5009711;28;20052;-42
2022/05/07 02:20:03;;;;;;;24.80;18.77;;;13.80;96.30;;;;;;5011753;28;20112;-41
2022/05/07 02:22:30;;;;;;;31.15;23.83;;;13.70;96.10;;;;;;5010574;28;20403;-42
2022/05/07 02:24:57;;;;;;;24.67;20.75;;;13.70;96.30;;;;;;5010820;28;20046;-42
2022/05/07 02:27:24;;;;;;;25.92;21.15;;;13.70;96.20;;;;;;5010641;28;20185;-42
2022/05/07 02:29:51;;;;;;;28.80;20.88;;;13.70;96.30;;;;;;5010199;28;20050;-41
2022/05/07 02:32:19;;;;;;;24.52;19.35;;;13.70;96.20;;;;;;5007628;28;20056;-42
2022/05/07 02:34:45;;;;;;;28.50;22.50;;;13.70;96.00;;;;;;5010712;28;20042;-42
2022/05/07 02:37:12;;;;;;;28.02;21.33;;;13.70;96.20;;;;;;5012472;28;20046;-42
2022/05/07 02:39:39;;;;;;;29.40;21.52;;;13.70;96.20;;;;;;5013207;28;20479;-42
2022/05/07 02:44:50;;;;;;;33.60;24.85;;;13.70;96.30;;;;;;5009055;28;20061;-42
2022/05/07 02:47:18;;;;;;;32.55;23.23;;;13.70;97.00;;;;;;5010368;28;20367;-42
2022/05/07 02:49:45;;;;;;;29.50;22.92;;;13.70;96.70;;;;;;5014711;28;20056;-42
2022/05/07 02:52:12;;;;;;;28.50;20.38;;;13.70;96.90;;;;;;5012621;28;20465;-42
2022/05/07 02:54:38;;;;;;;31.75;24.58;;;13.70;96.90;;;;;;5012229;28;20053;-41
2022/05/07 02:57:05;;;;;;;30.65;24.45;;;13.70;97.20;;;;;;5014125;28;20056;-42
2022/05/07 02:59:32;;;;;;;24.27;19.08;;;13.60;97.40;;;;;;5013804;28;20050;-41
2022/05/07 03:01:59;;;;;;;24.77;20.60;;;13.60;97.10;;;;;;5010052;28;20054;-42
2022/05/07 03:04:27;;;;;;;25.30;20.20;;;13.60;97.10;;;;;;5008491;28;20053;-42
2022/05/07 03:06:54;;;;;;;24.83;20.27;;;13.60;96.60;;;;;;5013481;28;20064;-42
2022/05/07 03:09:21;;;;;;;28.15;21.40;;;13.60;96.40;;;;;;5012111;28;20053;-41
2022/05/07 03:11:49;;;;;;;28.98;22.27;;;13.60;96.50;;;;;;5012090;28;20052;-42
2022/05/07 03:14:15;;;;;;;24.90;19.25;;;13.60;96.60;;;;;;5012856;28;20064;-42
2022/05/07 03:16:42;;;;;;;27.35;22.23;;;13.60;96.60;;;;;;5010604;28;20052;-42
2022/05/07 03:19:09;;;;;;;30.33;21.83;;;13.60;96.70;;;;;;5007947;28;20414;-42
2022/05/07 03:21:37;;;;;;;26.52;19.48;;;13.60;96.70;;;;;;5013716;28;20042;-42
2022/05/07 03:24:04;;;;;;;31.00;24.50;;;13.60;96.50;;;;;;5012284;28;20053;-42
2022/05/07 03:26:30;;;;;;;27.27;20.95;;;13.60;96.80;;;;;;5008863;28;20046;-42
2022/05/07 03:28:57;;;;;;;34.88;23.67;;;13.60;96.60;;;;;;5010206;28;20053;-42
2022/05/07 03:31:24;;;;;;;24.88;21.83;;;13.60;97.00;;;;;;5012180;28;20128;-42
2022/05/07 03:33:50;;;;;;;22.20;17.60;;;13.60;97.00;;;;;;5013229;28;20064;-42
2022/05/07 03:36:17;;;;;;;28.55;20.50;;;13.50;96.40;;;;;;5009594;28;20054;-42
2022/05/07 03:38:45;;;;;;;24.48;19.58;;;13.50;96.40;;;;;;5011652;28;20050;-41
2022/05/07 03:41:12;;;;;;;28.80;24.42;;;13.60;96.30;;;;;;5008858;28;20500;-42
2022/05/07 03:43:40;;;;;;;27.65;21.92;;;13.50;96.70;;;;;;5006793;28;20053;-42
2022/05/07 03:46:06;;;;;;;24.23;19.55;;;13.50;96.70;;;;;;5010772;28;20042;-41
2022/05/07 03:48:33;;;;;;;26.38;20.48;;;13.50;96.50;;;;;;5008914;28;20054;-42
2022/05/07 03:51:00;;;;;;;30.27;23.67;;;13.50;96.40;;;;;;5009163;28;20054;-43
2022/05/07 03:53:32;;;;;;;24.85;21.02;;;13.50;96.50;;;;;;5012846;28;20449;-42
2022/05/07 03:56:00;;;;;;;;;;;13.50;96.80;;;;;;5012926;28;20050;-42
2022/05/07 03:58:27;;;;;;;26.15;20.95;;;13.50;95.50;;;;;;5008740;28;19927;-42
2022/05/07 04:00:54;;;;;;;33.17;25.02;;;13.40;96.50;;;;;;5011180;28;20057;-42
2022/05/07 04:03:21;;;;;;;31.70;23.17;;;13.40;96.90;;;;;;5010838;28;20049;-41
2022/05/07 04:05:48;;;;;;;29.63;22.88;;;13.40;97.10;;;;;;5011568;28;20057;-41
2022/05/07 04:08:14;;;;;;;25.85;20.40;;;13.40;97.20;;;;;;5010473;28;20050;-41
2022/05/07 04:10:42;;;;;;;28.10;22.67;;;13.40;97.00;;;;;;5013012;28;20451;-41
2022/05/07 04:13:11;;;;;;;25.05;19.15;;;13.40;97.20;;;;;;5011642;28;20556;-42
2022/05/07 04:15:37;;;;;;;23.25;19.05;;;13.40;97.00;;;;;;5009061;28;20083;-41
2022/05/07 04:18:05;;;;;;;23.52;19.60;;;13.40;96.90;;;;;;5011505;28;20046;-41
2022/05/07 04:20:31;;;;;;;25.55;19.77;;;13.40;96.90;;;;;;5012724;28;20052;-42
2022/05/07 04:22:58;;;;;;;26.83;21.63;;;13.40;96.90;;;;;;5017419;28;20076;-41
2022/05/07 04:25:25;;;;;;;24.48;19.58;;;13.40;96.80;;;;;;5002744;28;20042;-42
2022/05/07 04:27:52;;;;;;;28.92;21.20;;;13.40;96.80;;;;;;5011201;28;20426;-42
2022/05/07 04:30:20;;;;;;;28.63;23.38;;;13.40;96.80;;;;;;5000596;28;20085;-42
2022/05/07 04:32:47;;;;;;;25.27;20.35;;;13.50;97.20;;;;;;5010807;28;20056;-42
2022/05/07 04:35:14;;;;;;;24.00;18.98;;;13.40;97.00;;;;;;5005450;28;20046;-42
2022/05/07 04:37:40;;;;;;;28.98;22.27;;;13.40;96.90;;;;;;5001135;28;20045;-42
2022/05/07 04:40:09;;;;;;;24.38;20.55;;;13.50;97.00;;;;;;5008908;28;20060;-42
2022/05/07 04:42:36;;;;;;;29.60;24.58;;;13.50;96.80;;;;;;5005830;28;20530;-42
2022/05/07 04:45:03;;;;;;;31.42;25.83;;;13.50;97.10;;;;;;5009817;28;20054;-42
2022/05/07 04:47:31;;;;;;;27.27;23.60;;;13.50;97.60;;;;;;5012073;28;20042;-42
2022/05/07 04:49:58;;;;;;;31.20;24.17;;;13.50;97.60;;;;;;5010281;28;20128;-42
2022/05/07 04:52:25;;;;;;;34.17;24.77;;;13.50;97.70;;;;;;5006379;28;20054;-41
2022/05/07 04:54:51;;;;;;;32.38;25.55;;;13.60;97.80;;;;;;5010552;28;20054;-42
2022/05/07 04:57:18;;;;;;;40.95;27.63;;;13.50;97.90;;;;;;5005308;28;20144;-42
2022/05/07 04:59:45;;;;;;;34.65;26.27;;;13.60;98.40;;;;;;5012014;28;20401;-42
2022/05/07 05:02:11;;;;;;;32.15;25.77;;;13.60;98.70;;;;;;5008520;28;20136;-42
2022/05/07 05:04:39;;;;;;;33.85;26.88;;;13.60;98.80;;;;;;5009183;28;20052;-42
2022/05/07 05:07:06;;;;;;;37.38;26.92;;;13.60;99.10;;;;;;5011374;28;20093;-42
2022/05/07 05:09:33;;;;;;;36.85;25.00;;;13.60;99.20;;;;;;5009636;28;20048;-41
2022/05/07 05:12:00;;;;;;;30.10;26.05;;;13.70;99.20;;;;;;5010501;28;20056;-42
2022/05/07 05:17:10;;;;;;;29.52;23.60;;;13.70;99.30;;;;;;5010137;28;20050;-42
2022/05/07 05:19:37;;;;;;;32.35;25.70;;;13.70;99.70;;;;;;5011667;28;20054;-43
2022/05/07 05:22:05;;;;;;;35.85;26.25;;;13.70;99.40;;;;;;5011733;28;20057;-42
2022/05/07 05:24:32;;;;;;;31.10;25.92;;;13.70;99.60;;;;;;5005474;28;20046;-42
2022/05/07 05:26:59;;;;;;;29.90;24.15;;;13.70;99.50;;;;;;5011140;28;20049;-42
2022/05/07 05:29:25;;;;;;;32.88;27.02;;;13.80;99.50;;;;;;5005870;28;20057;-42
2022/05/07 05:31:52;;;;;;;38.28;26.27;;;13.80;99.80;;;;;;5009953;28;20512;-42
2022/05/07 05:34:19;;;;;;;37.70;26.42;;;13.80;99.90;;;;;;5010529;28;20046;-42
2022/05/07 05:36:45;;;;;;;34.80;25.27;;;13.80;99.90;;;;;;5006941;28;20053;-43
2022/05/07 05:39:13;;;;;;;34.50;25.25;;;13.80;99.90;;;;;;5008572;28;20054;-42
2022/05/07 05:41:44;;;;;;;35.05;26.08;;;13.90;99.90;;;;;;5003892;28;20084;-41
2022/05/07 05:44:10;;;;;;;35.22;26.30;;;13.90;99.90;;;;;;5007098;28;20057;-42
2022/05/07 05:46:37;;;;;;;35.95;26.88;;;14.00;99.90;;;;;;5008670;28;20057;-42
2022/05/07 05:49:04;;;;;;;33.65;24.25;;;14.00;99.90;;;;;;5009502;28;20053;-42
2022/05/07 05:51:30;;;;;;;34.83;25.17;;;14.00;99.90;;;;;;5010628;28;20069;-42
2022/05/07 05:53:57;;;;;;;30.23;24.90;;;14.10;99.90;;;;;;5009408;28;20056;-42
2022/05/07 05:56:25;;;;;;;30.95;24.15;;;14.10;99.90;;;;;;5007777;28;20058;-42
2022/05/07 05:58:52;;;;;;;33.08;25.98;;;14.20;99.90;;;;;;5007843;28;20045;-42
2022/05/07 06:01:18;;;;;;;31.98;24.73;;;14.20;99.90;;;;;;5008219;28;20532;-42
2022/05/07 06:03:45;;;;;;;32.05;25.35;;;14.30;99.90;;;;;;5009496;28;20056;-42
2022/05/07 06:06:12;;;;;;;31.52;25.35;;;14.30;99.90;;;;;;5005722;28;20508;-42
2022/05/07 06:08:38;;;;;;;34.70;25.02;;;14.40;99.90;;;;;;5003825;28;20049;-42
2022/05/07 06:11:05;;;;;;;32.03;25.73;;;14.40;99.90;;;;;;5010729;28;20076;-42
2022/05/07 06:13:33;;;;;;;31.45;25.63;;;14.50;99.90;;;;;;5011132;28;20125;-42
2022/05/07 06:16:00;;;;;;;33.65;25.05;;;14.50;99.90;;;;;;5014614;28;20045;-42
2022/05/07 06:18:29;;;;;;;30.83;24.20;;;14.60;99.70;;;;;;5013139;28;20050;-42
2022/05/07 06:20:56;;;;;;;32.35;23.67;;;14.70;99.70;;;;;;5010890;28;20053;-42
2022/05/07 06:23:22;;;;;;;31.13;24.48;;;14.70;99.50;;;;;;5011823;28;20852;-43
2022/05/07 06:28:34;;;;;;;26.95;21.60;;;14.80;99.50;;;;;;5014132;28;20489;-42
2022/05/07 06:31:01;;;;;;;33.05;21.73;;;14.90;99.50;;;;;;5011858;28;20056;-42
2022/05/07 06:33:28;;;;;;;30.83;22.17;;;14.90;99.40;;;;;;5014334;28;20049;-42
2022/05/07 06:35:55;;;;;;;33.17;22.52;;;15.00;99.40;;;;;;5006009;28;20108;-42
2022/05/07 06:38:22;;;;;;;26.13;20.20;;;15.00;99.50;;;;;;5012361;28;20049;-42
2022/05/07 06:40:50;;;;;;;26.40;21.77;;;15.10;99.40;;;;;;5008084;28;20050;-42
2022/05/07 06:43:17;;;;;;;29.63;21.88;;;15.10;99.40;;;;;;5008697;28;20410;-42
2022/05/07 06:45:45;;;;;;;32.00;22.25;;;15.20;99.40;;;;;;5006866;28;20493;-42
2022/05/07 06:48:13;;;;;;;30.23;23.25;;;15.30;99.40;;;;;;5006914;28;20060;-42
2022/05/07 06:50:40;;;;;;;29.75;21.35;;;15.40;99.10;;;;;;5006023;28;20836;-42
2022/05/07 06:53:06;;;;;;;27.60;21.98;;;15.50;99.00;;;;;;5001014;28;20077;-43
2022/05/07 06:55:54;;;;;;;26.67;20.60;;;15.50;98.80;;;;;;5009393;28;20124;-42
2022/05/07 06:58:20;;;;;;;29.50;22.48;;;15.60;98.70;;;;;;5009166;28;20050;-42
2022/05/07 07:00:48;;;;;;;30.42;19.50;;;15.70;98.60;;;;;;5010392;28;20057;-42
2022/05/07 07:03:15;;;;;;;23.35;19.08;;;15.80;98.00;;;;;;5007014;28;20045;-42
2022/05/07 07:05:42;;;;;;;30.55;19.95;;;15.80;97.80;;;;;;5011582;28;20485;-42
2022/05/07 07:08:09;;;;;;;24.05;18.83;;;16.00;97.50;;;;;;5012698;28;20088;-43
2022/05/07 07:10:35;;;;;;;25.10;19.05;;;16.00;97.10;;;;;;5011892;28;20406;-42
2022/05/07 07:13:02;;;;;;;23.90;17.90;;;16.10;97.10;;;;;;5012720;28;20053;-42
2022/05/07 07:15:29;;;;;;;23.67;18.48;;;16.10;97.00;;;;;;5007243;28;20508;-42
2022/05/07 07:17:57;;;;;;;21.10;16.77;;;16.20;97.00;;;;;;5010883;28;20050;-42
2022/05/07 07:20:24;;;;;;;27.08;17.48;;;16.30;96.50;;;;;;5011482;28;20056;-42
2022/05/07 07:22:51;;;;;;;24.27;17.08;;;16.40;96.20;;;;;;5009265;28;20050;-42
2022/05/07 07:25:17;;;;;;;25.20;16.88;;;16.40;96.10;;;;;;5005786;28;20137;-42
2022/05/07 07:27:45;;;;;;;28.42;16.70;;;16.50;95.90;;;;;;5007368;28;20097;-42
2022/05/07 07:30:12;;;;;;;24.45;17.38;;;16.50;95.50;;;;;;5005777;28;20057;-42
2022/05/07 07:32:39;;;;;;;23.58;16.58;;;16.50;95.20;;;;;;5007379;28;20054;-43
2022/05/07 07:35:08;;;;;;;29.30;18.15;;;16.50;95.20;;;;;;5014063;28;20498;-42
2022/05/07 07:37:35;;;;;;;26.48;18.13;;;16.60;95.20;;;;;;5014432;28;20056;-42
2022/05/07 07:40:03;;;;;;;25.98;18.27;;;16.60;95.10;;;;;;5012265;28;20053;-42
2022/05/07 07:42:29;;;;;;;25.95;19.45;;;16.60;95.00;;;;;;5012522;28;20062;-42
2022/05/07 07:50:22;;;;;;;27.80;20.77;;;16.70;95.20;;;;;;5012533;28;20496;-43
2022/05/07 07:52:53;;;;;;;28.45;22.27;;;16.90;95.30;;;;;;5012257;28;20056;-41
2022/05/07 07:55:20;;;;;;;31.33;21.60;;;17.10;95.10;;;;;;5011825;28;20049;-43
2022/05/07 07:57:47;;;;;;;30.88;23.20;;;17.20;95.20;;;;;;5012911;28;20045;-43
2022/05/07 08:00:14;;;;;;;29.83;23.67;;;17.30;95.10;;;;;;5008288;28;20081;-42
2022/05/07 08:02:47;;;;;;;33.50;23.60;;;17.50;95.10;;;;;;5010578;28;20541;-42
2022/05/07 08:05:14;;;;;;;33.42;23.75;;;17.60;94.90;;;;;;5012661;28;20414;-42
2022/05/07 08:13:11;;;;;;;28.85;23.70;;;17.80;94.70;;;;;;5011401;28;20486;-41
2022/05/07 08:15:38;;;;;;;31.25;25.02;;;17.90;94.70;;;;;;5002816;28;20079;-43
2022/05/07 08:18:05;;;;;;;32.92;24.08;;;18.00;94.50;;;;;;5010508;28;20141;-42
2022/05/07 08:20:32;;;;;;;31.98;24.08;;;18.10;94.40;;;;;;5011562;28;20057;-42
2022/05/07 08:23:00;;;;;;;28.65;23.45;;;18.20;94.20;;;;;;5006677;28;20100;-41
2022/05/07 08:25:27;;;;;;;33.28;24.05;;;18.30;94.10;;;;;;5010220;28;20453;-42
2022/05/07 08:27:53;;;;;;;33.70;25.50;;;18.30;94.20;;;;;;5010476;28;20100;-42
2022/05/07 08:30:20;;;;;;;29.50;23.13;;;18.40;94.30;;;;;;5011150;28;20508;-43
2022/05/07 08:32:47;;;;;;;32.17;23.00;;;18.40;94.20;;;;;;5004671;28;20050;-42
2022/05/07 08:35:13;;;;;;;30.27;23.15;;;18.50;94.00;;;;;;5008402;28;20454;-43
2022/05/07 08:37:40;;;;;;;42.58;23.65;;;18.50;93.70;;;;;;5007559;28;20513;-42
2022/05/07 08:40:09;;;;;;;29.30;22.02;;;18.50;93.40;;;;;;5010642;28;20077;-42
2022/05/07 08:42:36;;;;;;;42.95;24.45;;;18.60;93.40;;;;;;4975380;28;1042010;-42
2022/05/07 08:45:03;;;;;;;31.33;24.40;;;18.60;93.60;;;;;;5011357;28;20057;-42
2022/05/07 08:47:30;;;;;;;31.42;22.42;;;18.70;93.00;;;;;;5011230;28;20042;-42
2022/05/07 08:49:57;;;;;;;31.42;24.55;;;18.70;93.00;;;;;;5010100;28;20125;-42
2022/05/07 08:52:24;;;;;;;31.48;25.33;;;18.70;92.80;;;;;;5009607;28;20057;-42
2022/05/07 08:54:50;;;;;;;36.50;25.95;;;18.70;92.90;;;;;;5011228;28;20415;-43
2022/05/07 08:57:18;;;;;;;31.50;25.42;;;18.60;92.90;;;;;;5006853;28;20136;-42
2022/05/07 08:59:45;;;;;;;31.75;23.85;;;18.60;93.00;;;;;;5007865;28;20046;-43
2022/05/07 09:02:12;;;;;;;33.55;25.30;;;18.70;93.10;;;;;;5007943;28;20068;-42
2022/05/07 09:04:39;;;;;;;36.38;26.60;;;18.80;93.00;;;;;;5011576;28;20103;-42
2022/05/07 09:07:08;;;;;;;32.83;26.23;;;18.80;92.90;;;;;;5011701;28;20056;-42
2022/05/07 09:09:35;;;;;;;34.47;24.83;;;18.80;92.80;;;;;;5011623;28;20401;-42
2022/05/07 09:12:01;;;;;;;33.33;25.60;;;18.90;92.80;;;;;;5001503;28;20057;-42
2022/05/07 09:14:32;;;;;;;30.42;24.73;;;19.00;92.60;;;;;;5008655;28;20140;-42
2022/05/07 09:16:59;;;;;;;33.42;25.40;;;19.00;92.50;;;;;;5011927;28;20054;-43
2022/05/07 09:19:27;;;;;;;36.30;26.98;;;19.10;92.50;;;;;;5010869;28;20052;-42
2022/05/07 09:22:04;;;;;;;38.08;26.50;;;19.10;92.40;;;;;;5012286;28;20454;-42
2022/05/07 09:24:31;;;;;;;35.90;26.80;;;19.20;92.30;;;;;;5002180;28;20474;-42
2022/05/07 09:26:57;;;;;;;38.78;26.52;;;19.20;92.40;;;;;;5012079;28;20132;-42
2022/05/07 09:29:27;;;;;;;31.60;25.67;;;19.30;92.20;;;;;;5011476;28;20477;-42
2022/05/07 09:31:55;;;;;;;31.58;25.75;;;19.30;91.90;;;;;;5000475;28;20482;-42
2022/05/07 09:37:16;;;;;;;36.58;26.27;;;19.50;91.80;;;;;;4941941;28;20445;-42
2022/05/07 09:39:46;;;;;;;36.75;26.23;;;19.50;91.80;;;;;;5009773;28;20079;-42
2022/05/07 09:42:13;;;;;;;32.97;25.75;;;19.60;92.00;;;;;;5006686;28;20058;-43
2022/05/07 09:44:40;;;;;;;34.38;26.70;;;19.70;91.70;;;;;;5007256;28;20474;-42
2022/05/07 09:47:09;;;;;;;33.78;25.88;;;19.70;91.70;;;;;;5012008;28;20054;-42
2022/05/07 09:49:36;;;;;;;35.35;26.95;;;19.80;91.40;;;;;;5012415;28;20060;-42
2022/05/07 09:52:04;;;;;;;31.58;25.70;;;19.90;91.30;;;;;;5011269;28;20422;-43
2022/05/07 09:57:33;;;;;;;38.75;28.40;;;19.90;91.00;;;;;;5007675;28;20045;-42
2022/05/07 10:00:02;;;;;;;36.13;26.77;;;20.00;90.80;;;;;;5014104;28;20093;-42
2022/05/07 10:02:40;;;;;;;29.92;24.15;;;19.90;91.10;;;;;;5012615;28;20049;-43
2022/05/07 10:05:16;;;;;;;34.17;25.55;;;20.00;91.30;;;;;;5003849;28;20332;-42
2022/05/07 10:08:03;;;;;;;32.47;26.05;;;19.90;91.30;;;;;;5012460;28;20046;-43
2022/05/07 10:10:30;;;;;;;32.33;24.90;;;20.00;91.20;;;;;;5006521;28;20052;-42
2022/05/07 10:12:58;;;;;;;29.80;24.58;;;20.00;91.10;;;;;;5008619;28;20061;-42
2022/05/07 10:15:26;;;;;;;31.10;25.70;;;20.00;91.20;;;;;;5011649;28;20077;-42
2022/05/07 10:18:02;;;;;;;34.42;25.17;;;20.10;91.30;;;;;;5004760;28;20557;-43
2022/05/07 10:20:37;;;;;;;33.35;26.92;;;20.10;91.20;;;;;;5013362;28;20049;-42
2022/05/07 10:23:03;;;;;;;37.00;27.33;;;20.20;91.20;;;;;;5009720;28;20128;-42
2022/05/07 10:25:30;;;;;;;33.63;27.77;;;20.30;91.10;;;;;;5006288;28;20056;-42
2022/05/07 10:28:08;;;;;;;31.10;26.58;;;20.20;90.90;;;;;;5008926;28;20058;-42
2022/05/07 10:30:44;;;;;;;35.58;27.85;;;20.20;91.10;;;;;;5007397;28;20053;-42
2022/05/07 10:33:12;;;;;;;35.40;28.00;;;20.20;91.20;;;;;;5005144;28;20058;-42
2022/05/07 10:35:40;;;;;;;30.38;25.38;;;20.30;90.80;;;;;;5005632;28;20069;-42
2022/05/07 10:38:07;;;;;;;35.97;26.88;;;20.30;90.70;;;;;;5016808;28;20045;-41
2022/05/07 10:40:33;;;;;;;31.67;24.35;;;20.50;90.20;;;;;;5013642;28;20054;-42
2022/05/07 10:43:00;;;;;;;30.98;24.08;;;20.60;90.10;;;;;;5014443;28;20137;-42
2022/05/07 10:45:28;;;;;;;35.15;26.08;;;20.80;89.70;;;;;;5009375;28;20121;-42
2022/05/07 10:47:55;;;;;;;27.38;21.75;;;20.90;89.10;;;;;;5013693;28;20449;-42
2022/05/07 10:50:23;;;;;;;30.95;22.30;;;21.00;88.50;;;;;;5012359;28;20046;-43
2022/05/07 10:52:55;;;;;;;31.67;25.17;;;21.10;87.70;;;;;;5009359;28;20077;-42
2022/05/07 10:55:24;;;;;;;;;;;21.20;87.20;;;;;;5015612;28;20049;-42
2022/05/07 10:57:52;;;;;;;31.80;24.73;;;21.30;87.70;;;;;;5001270;28;19933;-42
2022/05/07 11:00:19;;;;;;;34.17;25.35;;;21.40;87.90;;;;;;5009021;28;20072;-43
2022/05/07 11:02:47;;;;;;;27.50;23.23;;;21.60;87.60;;;;;;5014344;28;20486;-43
2022/05/07 11:05:15;;;;;;;28.35;24.73;;;21.70;86.80;;;;;;5014284;28;20128;-42
2022/05/07 11:07:43;;;;;;;32.08;25.80;;;21.80;86.50;;;;;;5012659;28;20042;-42
2022/05/07 11:10:10;;;;;;;36.88;25.00;;;21.80;85.30;;;;;;5012570;28;20517;-42
2022/05/07 11:12:36;;;;;;;32.70;25.77;;;21.80;84.60;;;;;;5009408;28;20482;-42
2022/05/07 11:15:04;;;;;;;29.27;23.20;;;21.70;84.00;;;;;;5006659;28;20054;-43
2022/05/07 11:17:32;;;;;;;29.45;23.55;;;21.90;84.30;;;;;;5011927;28;20050;-42
2022/05/07 11:19:59;;;;;;;26.52;22.70;;;22.00;83.60;;;;;;5011667;28;20074;-43
2022/05/07 11:22:29;;;;;;;29.55;22.98;;;22.00;83.40;;;;;;5010772;28;20052;-43
2022/05/07 11:24:58;;;;;;;27.37;21.10;;;22.10;83.90;;;;;;5004360;28;20137;-42
2022/05/07 11:27:29;;;;;;;28.98;22.40;;;22.30;83.80;;;;;;5011718;28;20046;-42
2022/05/07 11:29:56;;;;;;;27.02;21.83;;;22.30;83.20;;;;;;5007873;28;20073;-42
2022/05/07 11:32:23;;;;;;;27.08;21.83;;;22.50;82.70;;;;;;5011046;28;20409;-43
2022/05/07 11:34:54;;;;;;;26.50;20.13;;;22.70;82.30;;;;;;5014050;28;20068;-43
2022/05/07 11:37:22;;;;;;;28.27;21.60;;;22.80;81.80;;;;;;5000350;28;20109;-43
2022/05/07 11:39:50;;;;;;;26.38;19.90;;;23.00;80.80;;;;;;5010373;28;20057;-42
2022/05/07 11:42:28;;;;;;;24.88;19.27;;;23.10;79.70;;;;;;5011595;28;20064;-42
2022/05/07 11:47:39;;;;;;;30.05;19.52;;;23.20;78.60;;;;;;5010832;28;20046;-43
2022/05/07 11:50:06;;;;;;;23.35;17.15;;;23.10;77.20;;;;;;5007284;28;20356;-42
2022/05/07 11:52:33;;;;;;;20.60;17.00;;;23.10;77.50;;;;;;5011243;28;20056;-42
2022/05/07 11:55:04;;;;;;;26.08;17.52;;;23.10;76.70;;;;;;5011674;28;20053;-43
2022/05/07 11:57:32;;;;;;;23.95;17.50;;;23.00;76.40;;;;;;5013896;28;20486;-42
2022/05/07 12:00:12;;;;;;;25.45;17.42;;;22.90;76.40;;;;;;5011506;28;20046;-42
2022/05/07 12:02:39;;;;;;;27.55;19.33;;;22.90;77.20;;;;;;5010812;28;20054;-42
2022/05/07 12:05:07;;;;;;;31.00;21.80;;;22.70;77.80;;;;;;5013714;28;20053;-42
2022/05/07 12:07:39;;;;;;;26.73;21.30;;;22.80;77.90;;;;;;5010796;28;20045;-42
2022/05/07 12:10:07;;;;;;;26.83;20.58;;;22.70;77.30;;;;;;5008096;28;20054;-42
2022/05/07 12:12:35;;;;;;;28.80;21.02;;;22.50;77.60;;;;;;5012930;28;20050;-42
2022/05/07 12:15:01;;;;;;;31.13;20.73;;;22.40;78.10;;;;;;5011738;28;20060;-42
2022/05/07 12:20:12;;;;;;;29.65;21.92;;;22.40;77.90;;;;;;4998841;28;20050;-43
2022/05/07 12:30:53;;;;;;;33.53;24.60;;;22.20;79.90;;;;;;5010479;28;20495;-42
2022/05/07 12:33:20;;;;;;;30.67;21.17;;;22.10;79.30;;;;;;5013434;28;20050;-43
2022/05/07 12:35:49;;;;;;;27.63;19.77;;;22.30;79.70;;;;;;5008714;28;20046;-42
2022/05/07 12:38:15;;;;;;;26.65;18.83;;;22.50;79.50;;;;;;5007603;28;20050;-43
2022/05/07 12:40:42;;;;;;;28.63;20.38;;;22.70;78.80;;;;;;5004579;28;20046;-42
2022/05/07 12:43:10;;;;;;;35.88;26.80;;;22.80;78.60;;;;;;5005978;28;20054;-42
2022/05/07 12:45:37;;;;;;;43.47;28.90;;;22.90;78.10;;;;;;5011433;28;20042;-43
2022/05/07 12:48:04;;;;;;;36.13;26.85;;;22.80;78.20;;;;;;5009323;28;20054;-43
2022/05/07 12:50:31;;;;;;;46.95;27.27;;;22.60;79.00;;;;;;5008760;28;20056;-42
2022/05/07 12:52:57;;;;;;;43.30;27.40;;;22.50;79.00;;;;;;5008805;28;20060;-42
2022/05/07 12:55:24;;;;;;;33.67;27.02;;;22.40;78.90;;;;;;5010810;28;20788;-43
2022/05/07 12:57:51;;;;;;;40.58;30.42;;;22.20;78.80;;;;;;5010350;28;20046;-42
2022/05/07 13:00:19;;;;;;;45.63;30.08;;;22.10;79.20;;;;;;5010387;28;20157;-42
2022/05/07 13:02:50;;;;;;;37.45;27.20;;;22.10;79.60;;;;;;5007815;28;20055;-42
2022/05/07 13:05:17;;;;;;;44.38;30.95;;;22.20;80.50;;;;;;5011845;28;20041;-43
2022/05/07 13:07:44;;;;;;;43.15;29.80;;;22.20;79.40;;;;;;5009182;28;20048;-42
2022/05/07 13:10:10;;;;;;;37.40;27.27;;;22.10;79.50;;;;;;5011547;28;20046;-42
2022/05/07 13:12:39;;;;;;;41.03;29.17;;;22.10;80.60;;;;;;5005630;28;20532;-42
2022/05/07 13:15:06;;;;;;;42.80;30.30;;;22.10;80.40;;;;;;5006749;28;20054;-43